sensor_id;sensor_type;location;lat;lon;timestamp;P1;durP1;ratioP1;P2;durP2;ratioP2
82495;SDS011;72133;42.522;24.800;2024-01-25T00:01:52;19.35;;;12.75;;
82495;SDS011;72133;42.522;24.800;2024-01-25T00:04:19;18.95;;;12.80;;
82495;SDS011;72133;42.522;24.800;2024-01-25T00:06:44;19.67;;;12.43;;
82495;SDS011;72133;42.522;24.800;2024-01-25T00:09:10;16.90;;;12.15;;
82495;SDS011;72133;42.522;24.800;2024-01-25T00:11:36;16.60;;;12.10;;
82495;SDS011;72133;42.522;24.800;2024-01-25T00:14:01;16.00;;;12.48;;
82495;SDS011;72133;42.522;24.800;2024-01-25T00:16:27;16.90;;;12.57;;
82495;SDS011;72133;42.522;24.800;2024-01-25T00:18:53;19.75;;;12.25;;
82495;SDS011;72133;42.522;24.800;2024-01-25T00:21:18;18.77;;;12.55;;
82495;SDS011;72133;42.522;24.800;2024-01-25T00:23:44;16.55;;;11.07;;
82495;SDS011;72133;42.522;24.800;2024-01-25T00:26:10;16.08;;;11.38;;
82495;SDS011;72133;42.522;24.800;2024-01-25T00:28:35;17.73;;;11.80;;
82495;SDS011;72133;42.522;24.800;2024-01-25T00:31:01;18.95;;;11.95;;
82495;SDS011;72133;42.522;24.800;2024-01-25T00:33:26;16.80;;;10.68;;
82495;SDS011;72133;42.522;24.800;2024-01-25T00:35:52;17.58;;;11.65;;
82495;SDS011;72133;42.522;24.800;2024-01-25T00:38:18;37.35;;;25.48;;
82495;SDS011;72133;42.522;24.800;2024-01-25T00:40:44;33.33;;;22.02;;
82495;SDS011;72133;42.522;24.800;2024-01-25T00:43:10;22.50;;;15.32;;
82495;SDS011;72133;42.522;24.800;2024-01-25T00:45:35;20.17;;;15.90;;
82495;SDS011;72133;42.522;24.800;2024-01-25T00:48:02;19.23;;;14.00;;
82495;SDS011;72133;42.522;24.800;2024-01-25T00:50:28;23.27;;;16.33;;
82495;SDS011;72133;42.522;24.800;2024-01-25T00:52:54;27.30;;;19.77;;
82495;SDS011;72133;42.522;24.800;2024-01-25T00:55:20;29.90;;;21.05;;
82495;SDS011;72133;42.522;24.800;2024-01-25T00:57:45;26.83;;;19.42;;
82495;SDS011;72133;42.522;24.800;2024-01-25T01:00:12;27.90;;;20.52;;
82495;SDS011;72133;42.522;24.800;2024-01-25T01:02:42;26.17;;;18.50;;
82495;SDS011;72133;42.522;24.800;2024-01-25T01:05:09;32.90;;;25.35;;
82495;SDS011;72133;42.522;24.800;2024-01-25T01:07:35;25.08;;;19.50;;
82495;SDS011;72133;42.522;24.800;2024-01-25T01:10:01;23.25;;;17.70;;
82495;SDS011;72133;42.522;24.800;2024-01-25T01:12:27;28.05;;;20.83;;
82495;SDS011;72133;42.522;24.800;2024-01-25T01:14:52;26.40;;;20.27;;
82495;SDS011;72133;42.522;24.800;2024-01-25T01:17:18;32.03;;;21.25;;
82495;SDS011;72133;42.522;24.800;2024-01-25T01:19:44;25.27;;;19.05;;
82495;SDS011;72133;42.522;24.800;2024-01-25T01:22:09;25.35;;;18.30;;
82495;SDS011;72133;42.522;24.800;2024-01-25T01:24:35;25.00;;;17.90;;
82495;SDS011;72133;42.522;24.800;2024-01-25T01:27:01;22.77;;;17.67;;
82495;SDS011;72133;42.522;24.800;2024-01-25T01:29:26;21.02;;;14.43;;
82495;SDS011;72133;42.522;24.800;2024-01-25T01:31:52;24.13;;;15.25;;
82495;SDS011;72133;42.522;24.800;2024-01-25T01:34:17;18.95;;;14.30;;
82495;SDS011;72133;42.522;24.800;2024-01-25T01:36:43;21.73;;;14.02;;
82495;SDS011;72133;42.522;24.800;2024-01-25T01:39:09;23.80;;;16.40;;
82495;SDS011;72133;42.522;24.800;2024-01-25T01:41:35;24.02;;;16.48;;
82495;SDS011;72133;42.522;24.800;2024-01-25T01:44:01;18.23;;;13.68;;
82495;SDS011;72133;42.522;24.800;2024-01-25T01:48:56;21.42;;;14.80;;
82495;SDS011;72133;42.522;24.800;2024-01-25T01:51:21;23.23;;;16.73;;
82495;SDS011;72133;42.522;24.800;2024-01-25T01:53:47;21.98;;;17.77;;
82495;SDS011;72133;42.522;24.800;2024-01-25T01:56:13;26.23;;;19.05;;
82495;SDS011;72133;42.522;24.800;2024-01-25T01:58:39;28.17;;;20.90;;
82495;SDS011;72133;42.522;24.800;2024-01-25T02:01:06;30.00;;;21.25;;
82495;SDS011;72133;42.522;24.800;2024-01-25T02:03:32;32.30;;;22.10;;
82495;SDS011;72133;42.522;24.800;2024-01-25T02:05:57;30.73;;;21.90;;
82495;SDS011;72133;42.522;24.800;2024-01-25T02:08:30;29.65;;;22.73;;
82495;SDS011;72133;42.522;24.800;2024-01-25T02:10:56;30.20;;;21.73;;
82495;SDS011;72133;42.522;24.800;2024-01-25T02:13:22;32.40;;;21.63;;
82495;SDS011;72133;42.522;24.800;2024-01-25T02:15:47;27.02;;;20.75;;
82495;SDS011;72133;42.522;24.800;2024-01-25T02:18:13;29.98;;;22.52;;
82495;SDS011;72133;42.522;24.800;2024-01-25T02:20:40;33.65;;;22.58;;
82495;SDS011;72133;42.522;24.800;2024-01-25T02:23:06;29.85;;;20.45;;
82495;SDS011;72133;42.522;24.800;2024-01-25T02:25:31;27.08;;;19.58;;
82495;SDS011;72133;42.522;24.800;2024-01-25T02:27:57;28.75;;;21.40;;
82495;SDS011;72133;42.522;24.800;2024-01-25T02:30:22;29.92;;;21.80;;
82495;SDS011;72133;42.522;24.800;2024-01-25T02:32:48;26.52;;;18.63;;
82495;SDS011;72133;42.522;24.800;2024-01-25T02:35:13;27.70;;;19.60;;
82495;SDS011;72133;42.522;24.800;2024-01-25T02:37:39;30.45;;;20.08;;
82495;SDS011;72133;42.522;24.800;2024-01-25T02:40:05;26.23;;;19.02;;
82495;SDS011;72133;42.522;24.800;2024-01-25T02:42:31;24.83;;;19.20;;
82495;SDS011;72133;42.522;24.800;2024-01-25T02:44:56;31.58;;;22.15;;
82495;SDS011;72133;42.522;24.800;2024-01-25T02:47:22;28.52;;;21.02;;
82495;SDS011;72133;42.522;24.800;2024-01-25T02:49:47;29.73;;;20.95;;
82495;SDS011;72133;42.522;24.800;2024-01-25T02:52:13;29.77;;;21.80;;
82495;SDS011;72133;42.522;24.800;2024-01-25T02:54:38;25.38;;;19.33;;
82495;SDS011;72133;42.522;24.800;2024-01-25T02:59:39;25.52;;;18.92;;
82495;SDS011;72133;42.522;24.800;2024-01-25T03:02:05;27.75;;;20.63;;
82495;SDS011;72133;42.522;24.800;2024-01-25T03:04:30;25.83;;;18.92;;
82495;SDS011;72133;42.522;24.800;2024-01-25T03:06:56;25.92;;;18.17;;
82495;SDS011;72133;42.522;24.800;2024-01-25T03:09:21;24.83;;;17.95;;
82495;SDS011;72133;42.522;24.800;2024-01-25T03:11:48;27.80;;;18.58;;
82495;SDS011;72133;42.522;24.800;2024-01-25T03:14:14;22.65;;;17.90;;
82495;SDS011;72133;42.522;24.800;2024-01-25T03:16:40;27.50;;;18.80;;
82495;SDS011;72133;42.522;24.800;2024-01-25T03:19:06;29.70;;;23.48;;
82495;SDS011;72133;42.522;24.800;2024-01-25T03:21:31;26.02;;;18.67;;
82495;SDS011;72133;42.522;24.800;2024-01-25T03:23:57;24.20;;;17.48;;
82495;SDS011;72133;42.522;24.800;2024-01-25T03:26:23;23.15;;;16.75;;
82495;SDS011;72133;42.522;24.800;2024-01-25T03:28:48;22.85;;;17.20;;
82495;SDS011;72133;42.522;24.800;2024-01-25T03:31:14;23.08;;;16.05;;
82495;SDS011;72133;42.522;24.800;2024-01-25T03:33:39;20.10;;;15.63;;
82495;SDS011;72133;42.522;24.800;2024-01-25T03:36:05;18.33;;;13.98;;
82495;SDS011;72133;42.522;24.800;2024-01-25T03:38:31;19.20;;;13.02;;
82495;SDS011;72133;42.522;24.800;2024-01-25T03:40:57;14.60;;;10.80;;
82495;SDS011;72133;42.522;24.800;2024-01-25T03:43:26;16.45;;;10.77;;
82495;SDS011;72133;42.522;24.800;2024-01-25T03:45:52;14.55;;;9.85;;
82495;SDS011;72133;42.522;24.800;2024-01-25T03:48:18;15.18;;;9.77;;
82495;SDS011;72133;42.522;24.800;2024-01-25T03:50:44;11.90;;;8.85;;
82495;SDS011;72133;42.522;24.800;2024-01-25T03:53:09;9.68;;;5.65;;
82495;SDS011;72133;42.522;24.800;2024-01-25T03:55:35;6.38;;;4.07;;
82495;SDS011;72133;42.522;24.800;2024-01-25T03:58:00;6.38;;;4.22;;
82495;SDS011;72133;42.522;24.800;2024-01-25T04:00:26;5.20;;;2.85;;
82495;SDS011;72133;42.522;24.800;2024-01-25T04:02:52;5.43;;;2.60;;
82495;SDS011;72133;42.522;24.800;2024-01-25T04:05:17;5.43;;;3.72;;
82495;SDS011;72133;42.522;24.800;2024-01-25T04:07:43;5.85;;;3.28;;
82495;SDS011;72133;42.522;24.800;2024-01-25T04:10:08;6.38;;;3.00;;
82495;SDS011;72133;42.522;24.800;2024-01-25T04:12:34;5.70;;;3.08;;
82495;SDS011;72133;42.522;24.800;2024-01-25T04:15:00;4.15;;;2.40;;
82495;SDS011;72133;42.522;24.800;2024-01-25T04:17:25;4.63;;;3.22;;
82495;SDS011;72133;42.522;24.800;2024-01-25T04:19:51;4.63;;;2.40;;
82495;SDS011;72133;42.522;24.800;2024-01-25T04:22:16;4.15;;;2.40;;
82495;SDS011;72133;42.522;24.800;2024-01-25T04:24:42;5.18;;;2.75;;
82495;SDS011;72133;42.522;24.800;2024-01-25T04:27:09;6.13;;;2.78;;
82495;SDS011;72133;42.522;24.800;2024-01-25T04:29:38;5.53;;;2.35;;
82495;SDS011;72133;42.522;24.800;2024-01-25T04:32:05;3.47;;;2.35;;
82495;SDS011;72133;42.522;24.800;2024-01-25T04:34:31;3.33;;;2.00;;
82495;SDS011;72133;42.522;24.800;2024-01-25T04:36:56;3.97;;;2.15;;
82495;SDS011;72133;42.522;24.800;2024-01-25T04:39:22;4.82;;;2.08;;
82495;SDS011;72133;42.522;24.800;2024-01-25T04:41:48;4.30;;;2.40;;
82495;SDS011;72133;42.522;24.800;2024-01-25T04:44:13;3.33;;;2.00;;
82495;SDS011;72133;42.522;24.800;2024-01-25T04:46:39;3.85;;;2.25;;
82495;SDS011;72133;42.522;24.800;2024-01-25T04:49:04;4.30;;;2.40;;
82495;SDS011;72133;42.522;24.800;2024-01-25T04:51:30;5.05;;;2.30;;
82495;SDS011;72133;42.522;24.800;2024-01-25T04:53:56;4.45;;;2.40;;
82495;SDS011;72133;42.522;24.800;2024-01-25T04:56:21;3.08;;;1.90;;
82495;SDS011;72133;42.522;24.800;2024-01-25T04:58:47;3.25;;;1.80;;
82495;SDS011;72133;42.522;24.800;2024-01-25T05:01:13;3.40;;;1.90;;
82495;SDS011;72133;42.522;24.800;2024-01-25T05:03:39;3.58;;;2.30;;
82495;SDS011;72133;42.522;24.800;2024-01-25T05:06:04;3.90;;;2.60;;
82495;SDS011;72133;42.522;24.800;2024-01-25T05:08:30;4.70;;;2.03;;
82495;SDS011;72133;42.522;24.800;2024-01-25T05:10:56;4.28;;;1.80;;
82495;SDS011;72133;42.522;24.800;2024-01-25T05:13:22;3.70;;;2.03;;
82495;SDS011;72133;42.522;24.800;2024-01-25T05:15:48;4.10;;;1.90;;
82495;SDS011;72133;42.522;24.800;2024-01-25T05:18:14;18.90;;;9.63;;
82495;SDS011;72133;42.522;24.800;2024-01-25T05:20:39;6.00;;;3.30;;
82495;SDS011;72133;42.522;24.800;2024-01-25T05:23:05;3.60;;;2.30;;
82495;SDS011;72133;42.522;24.800;2024-01-25T05:25:31;5.82;;;2.10;;
82495;SDS011;72133;42.522;24.800;2024-01-25T05:27:57;7.82;;;3.08;;
82495;SDS011;72133;42.522;24.800;2024-01-25T05:30:23;5.20;;;2.97;;
82495;SDS011;72133;42.522;24.800;2024-01-25T05:32:49;6.28;;;3.50;;
82495;SDS011;72133;42.522;24.800;2024-01-25T05:35:15;7.13;;;3.72;;
82495;SDS011;72133;42.522;24.800;2024-01-25T05:37:42;9.05;;;3.00;;
82495;SDS011;72133;42.522;24.800;2024-01-25T05:40:08;11.88;;;6.10;;
82495;SDS011;72133;42.522;24.800;2024-01-25T05:42:35;6.97;;;2.90;;
82495;SDS011;72133;42.522;24.800;2024-01-25T05:45:01;5.68;;;1.80;;
82495;SDS011;72133;42.522;24.800;2024-01-25T05:47:28;3.10;;;1.60;;
82495;SDS011;72133;42.522;24.800;2024-01-25T05:49:55;2.65;;;1.63;;
82495;SDS011;72133;42.522;24.800;2024-01-25T05:52:21;6.72;;;3.85;;
82495;SDS011;72133;42.522;24.800;2024-01-25T05:54:47;5.28;;;3.10;;
82495;SDS011;72133;42.522;24.800;2024-01-25T05:57:13;5.85;;;2.78;;
82495;SDS011;72133;42.522;24.800;2024-01-25T05:59:39;8.52;;;5.68;;
82495;SDS011;72133;42.522;24.800;2024-01-25T06:02:05;8.43;;;3.85;;
82495;SDS011;72133;42.522;24.800;2024-01-25T06:04:31;4.15;;;2.25;;
82495;SDS011;72133;42.522;24.800;2024-01-25T06:06:57;7.60;;;3.00;;
82495;SDS011;72133;42.522;24.800;2024-01-25T06:09:23;2.13;;;1.00;;
82495;SDS011;72133;42.522;24.800;2024-01-25T06:11:52;7.38;;;4.57;;
82495;SDS011;72133;42.522;24.800;2024-01-25T06:14:17;4.47;;;2.15;;
82495;SDS011;72133;42.522;24.800;2024-01-25T06:16:43;2.70;;;1.63;;
82495;SDS011;72133;42.522;24.800;2024-01-25T06:19:09;3.28;;;1.90;;
82495;SDS011;72133;42.522;24.800;2024-01-25T06:21:35;4.07;;;1.55;;
82495;SDS011;72133;42.522;24.800;2024-01-25T06:24:03;3.67;;;1.48;;
82495;SDS011;72133;42.522;24.800;2024-01-25T06:26:29;10.80;;;7.13;;
82495;SDS011;72133;42.522;24.800;2024-01-25T06:28:55;5.00;;;2.00;;
82495;SDS011;72133;42.522;24.800;2024-01-25T06:31:22;7.65;;;4.00;;
82495;SDS011;72133;42.522;24.800;2024-01-25T06:33:49;3.42;;;1.35;;
82495;SDS011;72133;42.522;24.800;2024-01-25T06:36:16;9.75;;;3.97;;
82495;SDS011;72133;42.522;24.800;2024-01-25T06:38:42;12.30;;;5.55;;
82495;SDS011;72133;42.522;24.800;2024-01-25T06:41:10;3.20;;;1.20;;
82495;SDS011;72133;42.522;24.800;2024-01-25T06:43:36;6.20;;;2.03;;
82495;SDS011;72133;42.522;24.800;2024-01-25T06:46:01;4.15;;;1.20;;
82495;SDS011;72133;42.522;24.800;2024-01-25T06:48:27;5.63;;;2.35;;
82495;SDS011;72133;42.522;24.800;2024-01-25T06:50:53;3.65;;;1.30;;
82495;SDS011;72133;42.522;24.800;2024-01-25T06:53:18;3.15;;;1.30;;
82495;SDS011;72133;42.522;24.800;2024-01-25T06:55:44;6.18;;;2.35;;
82495;SDS011;72133;42.522;24.800;2024-01-25T06:58:10;5.95;;;2.53;;
82495;SDS011;72133;42.522;24.800;2024-01-25T07:00:35;2.35;;;1.27;;
82495;SDS011;72133;42.522;24.800;2024-01-25T07:03:04;3.05;;;1.40;;
82495;SDS011;72133;42.522;24.800;2024-01-25T07:05:30;3.75;;;1.58;;
82495;SDS011;72133;42.522;24.800;2024-01-25T07:07:58;2.70;;;1.52;;
82495;SDS011;72133;42.522;24.800;2024-01-25T07:10:24;3.67;;;1.30;;
82495;SDS011;72133;42.522;24.800;2024-01-25T07:12:50;3.67;;;1.42;;
82495;SDS011;72133;42.522;24.800;2024-01-25T07:15:17;5.97;;;2.25;;
82495;SDS011;72133;42.522;24.800;2024-01-25T07:17:42;4.00;;;1.40;;
82495;SDS011;72133;42.522;24.800;2024-01-25T07:20:08;3.75;;;1.50;;
82495;SDS011;72133;42.522;24.800;2024-01-25T07:22:34;4.68;;;1.60;;
82495;SDS011;72133;42.522;24.800;2024-01-25T07:25:00;3.95;;;2.17;;
82495;SDS011;72133;42.522;24.800;2024-01-25T07:27:26;3.90;;;1.77;;
82495;SDS011;72133;42.522;24.800;2024-01-25T07:29:51;3.63;;;1.60;;
82495;SDS011;72133;42.522;24.800;2024-01-25T07:32:18;3.72;;;1.50;;
82495;SDS011;72133;42.522;24.800;2024-01-25T07:34:43;3.10;;;1.20;;
82495;SDS011;72133;42.522;24.800;2024-01-25T07:37:09;3.60;;;1.38;;
82495;SDS011;72133;42.522;24.800;2024-01-25T07:39:36;6.97;;;1.90;;
82495;SDS011;72133;42.522;24.800;2024-01-25T07:42:02;9.77;;;3.75;;
82495;SDS011;72133;42.522;24.800;2024-01-25T07:44:28;8.15;;;4.00;;
82495;SDS011;72133;42.522;24.800;2024-01-25T07:46:53;4.95;;;1.90;;
82495;SDS011;72133;42.522;24.800;2024-01-25T07:49:19;4.40;;;2.40;;
82495;SDS011;72133;42.522;24.800;2024-01-25T07:51:44;6.13;;;2.28;;
82495;SDS011;72133;42.522;24.800;2024-01-25T07:54:10;3.70;;;1.40;;
82495;SDS011;72133;42.522;24.800;2024-01-25T07:56:36;4.65;;;1.83;;
82495;SDS011;72133;42.522;24.800;2024-01-25T07:59:01;6.22;;;1.88;;
82495;SDS011;72133;42.522;24.800;2024-01-25T08:01:27;4.63;;;1.90;;
82495;SDS011;72133;42.522;24.800;2024-01-25T08:03:52;5.28;;;1.60;;
82495;SDS011;72133;42.522;24.800;2024-01-25T08:06:18;3.95;;;1.70;;
82495;SDS011;72133;42.522;24.800;2024-01-25T08:08:43;3.00;;;1.58;;
82495;SDS011;72133;42.522;24.800;2024-01-25T08:11:09;6.70;;;2.05;;
82495;SDS011;72133;42.522;24.800;2024-01-25T08:13:35;2.83;;;1.50;;
82495;SDS011;72133;42.522;24.800;2024-01-25T08:16:00;5.13;;;1.58;;
82495;SDS011;72133;42.522;24.800;2024-01-25T08:18:26;4.05;;;1.45;;
82495;SDS011;72133;42.522;24.800;2024-01-25T08:20:55;3.75;;;1.30;;
82495;SDS011;72133;42.522;24.800;2024-01-25T08:23:21;4.15;;;1.80;;
82495;SDS011;72133;42.522;24.800;2024-01-25T08:25:46;5.03;;;1.50;;
82495;SDS011;72133;42.522;24.800;2024-01-25T08:28:12;5.28;;;2.50;;
82495;SDS011;72133;42.522;24.800;2024-01-25T08:30:38;6.82;;;3.05;;
82495;SDS011;72133;42.522;24.800;2024-01-25T08:33:03;5.65;;;1.80;;
82495;SDS011;72133;42.522;24.800;2024-01-25T08:35:29;4.57;;;1.60;;
82495;SDS011;72133;42.522;24.800;2024-01-25T08:37:57;7.55;;;3.13;;
82495;SDS011;72133;42.522;24.800;2024-01-25T08:40:23;6.55;;;2.72;;
82495;SDS011;72133;42.522;24.800;2024-01-25T08:42:49;6.38;;;2.05;;
82495;SDS011;72133;42.522;24.800;2024-01-25T08:45:14;3.75;;;1.73;;
82495;SDS011;72133;42.522;24.800;2024-01-25T08:47:40;4.22;;;1.88;;
82495;SDS011;72133;42.522;24.800;2024-01-25T08:50:06;5.30;;;1.70;;
82495;SDS011;72133;42.522;24.800;2024-01-25T08:52:36;5.15;;;1.85;;
82495;SDS011;72133;42.522;24.800;2024-01-25T08:55:03;5.90;;;1.85;;
82495;SDS011;72133;42.522;24.800;2024-01-25T08:57:30;4.78;;;1.55;;
82495;SDS011;72133;42.522;24.800;2024-01-25T08:59:56;5.25;;;2.15;;
82495;SDS011;72133;42.522;24.800;2024-01-25T09:02:23;6.95;;;2.00;;
82495;SDS011;72133;42.522;24.800;2024-01-25T09:04:52;8.13;;;3.03;;
82495;SDS011;72133;42.522;24.800;2024-01-25T09:07:19;4.53;;;1.77;;
82495;SDS011;72133;42.522;24.800;2024-01-25T09:09:45;4.22;;;1.77;;
82495;SDS011;72133;42.522;24.800;2024-01-25T09:12:10;4.22;;;1.58;;
82495;SDS011;72133;42.522;24.800;2024-01-25T09:14:38;5.05;;;1.60;;
82495;SDS011;72133;42.522;24.800;2024-01-25T09:17:04;5.10;;;1.65;;
82495;SDS011;72133;42.522;24.800;2024-01-25T09:19:30;4.40;;;1.50;;
82495;SDS011;72133;42.522;24.800;2024-01-25T09:21:56;2.90;;;1.35;;
82495;SDS011;72133;42.522;24.800;2024-01-25T09:24:24;7.70;;;2.88;;
82495;SDS011;72133;42.522;24.800;2024-01-25T09:26:50;7.80;;;3.50;;
82495;SDS011;72133;42.522;24.800;2024-01-25T09:29:16;8.15;;;3.47;;
82495;SDS011;72133;42.522;24.800;2024-01-25T09:31:41;5.13;;;2.40;;
82495;SDS011;72133;42.522;24.800;2024-01-25T09:34:07;5.65;;;2.53;;
82495;SDS011;72133;42.522;24.800;2024-01-25T09:36:33;5.32;;;2.10;;
82495;SDS011;72133;42.522;24.800;2024-01-25T09:38:58;5.55;;;1.75;;
82495;SDS011;72133;42.522;24.800;2024-01-25T09:41:24;4.53;;;1.92;;
82495;SDS011;72133;42.522;24.800;2024-01-25T09:43:50;5.75;;;1.92;;
82495;SDS011;72133;42.522;24.800;2024-01-25T09:46:15;4.85;;;1.60;;
82495;SDS011;72133;42.522;24.800;2024-01-25T09:48:41;4.43;;;1.75;;
82495;SDS011;72133;42.522;24.800;2024-01-25T09:51:09;5.82;;;1.75;;
82495;SDS011;72133;42.522;24.800;2024-01-25T09:53:34;7.97;;;2.08;;
82495;SDS011;72133;42.522;24.800;2024-01-25T09:56:05;4.25;;;1.65;;
82495;SDS011;72133;42.522;24.800;2024-01-25T09:58:37;4.95;;;1.98;;
82495;SDS011;72133;42.522;24.800;2024-01-25T10:01:10;7.88;;;2.35;;
82495;SDS011;72133;42.522;24.800;2024-01-25T10:03:37;6.30;;;2.05;;
82495;SDS011;72133;42.522;24.800;2024-01-25T10:06:13;4.72;;;1.52;;
82495;SDS011;72133;42.522;24.800;2024-01-25T10:08:40;7.45;;;2.28;;
82495;SDS011;72133;42.522;24.800;2024-01-25T10:11:05;7.28;;;2.15;;
82495;SDS011;72133;42.522;24.800;2024-01-25T10:13:39;5.00;;;2.10;;
82495;SDS011;72133;42.522;24.800;2024-01-25T10:16:11;6.78;;;1.95;;
82495;SDS011;72133;42.522;24.800;2024-01-25T10:18:41;5.47;;;1.80;;
82495;SDS011;72133;42.522;24.800;2024-01-25T10:21:10;7.38;;;1.77;;
82495;SDS011;72133;42.522;24.800;2024-01-25T10:23:37;6.55;;;1.90;;
82495;SDS011;72133;42.522;24.800;2024-01-25T10:26:03;5.03;;;2.33;;
82495;SDS011;72133;42.522;24.800;2024-01-25T10:28:29;2.95;;;1.45;;
82495;SDS011;72133;42.522;24.800;2024-01-25T10:30:57;6.07;;;2.00;;
82495;SDS011;72133;42.522;24.800;2024-01-25T10:33:25;5.40;;;1.90;;
82495;SDS011;72133;42.522;24.800;2024-01-25T10:35:51;7.20;;;1.83;;
82495;SDS011;72133;42.522;24.800;2024-01-25T10:38:21;5.93;;;1.83;;
82495;SDS011;72133;42.522;24.800;2024-01-25T10:40:47;6.00;;;2.03;;
82495;SDS011;72133;42.522;24.800;2024-01-25T10:43:13;7.55;;;2.35;;
82495;SDS011;72133;42.522;24.800;2024-01-25T10:45:39;8.70;;;1.80;;
82495;SDS011;72133;42.522;24.800;2024-01-25T10:48:04;5.07;;;1.90;;
82495;SDS011;72133;42.522;24.800;2024-01-25T10:50:30;5.50;;;1.90;;
82495;SDS011;72133;42.522;24.800;2024-01-25T10:52:56;6.35;;;1.92;;
82495;SDS011;72133;42.522;24.800;2024-01-25T10:55:22;6.25;;;2.20;;
82495;SDS011;72133;42.522;24.800;2024-01-25T10:57:47;7.63;;;1.90;;
82495;SDS011;72133;42.522;24.800;2024-01-25T11:00:14;6.60;;;1.70;;
82495;SDS011;72133;42.522;24.800;2024-01-25T11:02:42;7.22;;;1.85;;
82495;SDS011;72133;42.522;24.800;2024-01-25T11:05:09;7.78;;;2.17;;
82495;SDS011;72133;42.522;24.800;2024-01-25T11:07:45;5.82;;;2.15;;
82495;SDS011;72133;42.522;24.800;2024-01-25T11:12:50;8.43;;;1.95;;
82495;SDS011;72133;42.522;24.800;2024-01-25T11:15:22;8.18;;;1.83;;
82495;SDS011;72133;42.522;24.800;2024-01-25T11:17:53;4.93;;;1.90;;
82495;SDS011;72133;42.522;24.800;2024-01-25T11:20:26;5.32;;;1.60;;
82495;SDS011;72133;42.522;24.800;2024-01-25T11:22:56;7.30;;;2.03;;
82495;SDS011;72133;42.522;24.800;2024-01-25T11:25:32;6.45;;;1.77;;
82495;SDS011;72133;42.522;24.800;2024-01-25T11:27:59;3.65;;;1.75;;
82495;SDS011;72133;42.522;24.800;2024-01-25T11:30:26;6.80;;;1.63;;
82495;SDS011;72133;42.522;24.800;2024-01-25T11:32:53;5.47;;;1.50;;
82495;SDS011;72133;42.522;24.800;2024-01-25T11:35:19;4.88;;;1.65;;
82495;SDS011;72133;42.522;24.800;2024-01-25T11:37:46;4.97;;;2.17;;
82495;SDS011;72133;42.522;24.800;2024-01-25T11:40:12;7.85;;;2.40;;
82495;SDS011;72133;42.522;24.800;2024-01-25T11:42:39;6.47;;;2.05;;
82495;SDS011;72133;42.522;24.800;2024-01-25T11:45:05;5.57;;;1.90;;
82495;SDS011;72133;42.522;24.800;2024-01-25T11:47:35;6.88;;;2.05;;
82495;SDS011;72133;42.522;24.800;2024-01-25T11:50:01;6.40;;;3.10;;
82495;SDS011;72133;42.522;24.800;2024-01-25T11:52:27;6.38;;;1.98;;
82495;SDS011;72133;42.522;24.800;2024-01-25T11:54:53;6.72;;;2.53;;
82495;SDS011;72133;42.522;24.800;2024-01-25T11:57:19;7.40;;;2.30;;
82495;SDS011;72133;42.522;24.800;2024-01-25T11:59:44;4.22;;;1.70;;
82495;SDS011;72133;42.522;24.800;2024-01-25T12:02:12;5.38;;;2.00;;
82495;SDS011;72133;42.522;24.800;2024-01-25T12:04:39;6.97;;;1.92;;
82495;SDS011;72133;42.522;24.800;2024-01-25T12:07:04;5.45;;;1.85;;
82495;SDS011;72133;42.522;24.800;2024-01-25T12:09:30;6.07;;;2.30;;
82495;SDS011;72133;42.522;24.800;2024-01-25T12:11:56;4.65;;;1.67;;
82495;SDS011;72133;42.522;24.800;2024-01-25T12:14:23;4.55;;;1.83;;
82495;SDS011;72133;42.522;24.800;2024-01-25T12:16:49;4.55;;;1.70;;
82495;SDS011;72133;42.522;24.800;2024-01-25T12:19:15;4.07;;;1.85;;
82495;SDS011;72133;42.522;24.800;2024-01-25T12:21:43;5.55;;;2.38;;
82495;SDS011;72133;42.522;24.800;2024-01-25T12:24:09;5.25;;;2.55;;
82495;SDS011;72133;42.522;24.800;2024-01-25T12:26:35;3.83;;;1.73;;
82495;SDS011;72133;42.522;24.800;2024-01-25T12:29:02;5.35;;;1.88;;
82495;SDS011;72133;42.522;24.800;2024-01-25T12:31:28;5.85;;;2.40;;
82495;SDS011;72133;42.522;24.800;2024-01-25T12:33:53;4.65;;;1.80;;
82495;SDS011;72133;42.522;24.800;2024-01-25T12:36:19;4.90;;;2.70;;
82495;SDS011;72133;42.522;24.800;2024-01-25T12:38:45;5.00;;;2.33;;
82495;SDS011;72133;42.522;24.800;2024-01-25T12:41:12;5.70;;;2.40;;
82495;SDS011;72133;42.522;24.800;2024-01-25T12:43:38;8.35;;;2.35;;
82495;SDS011;72133;42.522;24.800;2024-01-25T12:46:03;5.50;;;2.30;;
82495;SDS011;72133;42.522;24.800;2024-01-25T12:48:29;3.85;;;2.13;;
82495;SDS011;72133;42.522;24.800;2024-01-25T12:50:55;5.50;;;2.65;;
82495;SDS011;72133;42.522;24.800;2024-01-25T12:53:20;4.75;;;2.10;;
82495;SDS011;72133;42.522;24.800;2024-01-25T12:55:46;7.93;;;2.47;;
82495;SDS011;72133;42.522;24.800;2024-01-25T12:58:12;7.47;;;2.53;;
82495;SDS011;72133;42.522;24.800;2024-01-25T13:00:37;7.90;;;2.95;;
82495;SDS011;72133;42.522;24.800;2024-01-25T13:03:03;7.15;;;2.38;;
82495;SDS011;72133;42.522;24.800;2024-01-25T13:05:29;6.30;;;2.42;;
82495;SDS011;72133;42.522;24.800;2024-01-25T13:07:55;5.10;;;2.20;;
82495;SDS011;72133;42.522;24.800;2024-01-25T13:10:21;9.45;;;2.75;;
82495;SDS011;72133;42.522;24.800;2024-01-25T13:12:47;4.45;;;2.10;;
82495;SDS011;72133;42.522;24.800;2024-01-25T13:15:12;7.80;;;3.75;;
82495;SDS011;72133;42.522;24.800;2024-01-25T13:17:38;6.35;;;2.33;;
82495;SDS011;72133;42.522;24.800;2024-01-25T13:20:04;8.65;;;2.20;;
82495;SDS011;72133;42.522;24.800;2024-01-25T13:22:31;7.22;;;2.40;;
82495;SDS011;72133;42.522;24.800;2024-01-25T13:24:58;5.68;;;2.30;;
82495;SDS011;72133;42.522;24.800;2024-01-25T13:27:25;6.03;;;2.67;;
82495;SDS011;72133;42.522;24.800;2024-01-25T13:29:51;8.75;;;2.55;;
82495;SDS011;72133;42.522;24.800;2024-01-25T13:32:17;6.40;;;2.67;;
82495;SDS011;72133;42.522;24.800;2024-01-25T13:34:43;8.38;;;2.75;;
82495;SDS011;72133;42.522;24.800;2024-01-25T13:37:08;7.80;;;2.72;;
82495;SDS011;72133;42.522;24.800;2024-01-25T13:39:34;6.40;;;2.70;;
82495;SDS011;72133;42.522;24.800;2024-01-25T13:41:59;9.68;;;5.68;;
82495;SDS011;72133;42.522;24.800;2024-01-25T13:44:25;10.82;;;5.32;;
82495;SDS011;72133;42.522;24.800;2024-01-25T13:46:50;8.32;;;4.00;;
82495;SDS011;72133;42.522;24.800;2024-01-25T13:49:16;10.07;;;3.38;;
82495;SDS011;72133;42.522;24.800;2024-01-25T13:51:43;7.07;;;2.53;;
82495;SDS011;72133;42.522;24.800;2024-01-25T13:54:09;6.15;;;2.35;;
82495;SDS011;72133;42.522;24.800;2024-01-25T13:56:35;8.43;;;3.00;;
82495;SDS011;72133;42.522;24.800;2024-01-25T13:59:01;7.53;;;3.97;;
82495;SDS011;72133;42.522;24.800;2024-01-25T14:01:26;6.20;;;2.47;;
82495;SDS011;72133;42.522;24.800;2024-01-25T14:03:52;6.43;;;2.58;;
82495;SDS011;72133;42.522;24.800;2024-01-25T14:06:17;8.55;;;4.20;;
82495;SDS011;72133;42.522;24.800;2024-01-25T14:08:43;6.07;;;2.50;;
82495;SDS011;72133;42.522;24.800;2024-01-25T14:11:09;6.22;;;2.70;;
82495;SDS011;72133;42.522;24.800;2024-01-25T14:13:35;6.88;;;2.47;;
82495;SDS011;72133;42.522;24.800;2024-01-25T14:16:01;8.25;;;3.03;;
82495;SDS011;72133;42.522;24.800;2024-01-25T14:18:27;8.30;;;2.88;;
82495;SDS011;72133;42.522;24.800;2024-01-25T14:20:54;10.25;;;5.28;;
82495;SDS011;72133;42.522;24.800;2024-01-25T14:23:20;13.27;;;7.03;;
82495;SDS011;72133;42.522;24.800;2024-01-25T14:25:45;9.02;;;2.83;;
82495;SDS011;72133;42.522;24.800;2024-01-25T14:28:11;8.65;;;4.32;;
82495;SDS011;72133;42.522;24.800;2024-01-25T14:30:38;6.32;;;2.63;;